Estación Meteorológica Peña el Pijo (Robertgarden) [ 12/15/17 20:47:52 CET ]

Fecha Hora Presion(HPa) Temp (°C) Humedad % Rocio (°C) Viento ( m/s) Direccion Lluvia 1Hora(mm) Lluvia 24H(mm) LLuvia Total(mm)
2017-May-15 01:01:45 1018.400 10.8 72 6.0         1390.83
2017-May-15 02:01:59 1018.600 9.4 76 5.3         1390.83
2017-May-15 03:02:08 1018.400 8.9 78 5.2         1390.83
2017-May-15 04:02:18 1018.300 8.4 79 5.0         1390.83
2017-May-15 05:02:18 1018.200 7.9 80 4.7         1390.83
2017-May-15 06:02:11 1018.400 7.5 81 4.5         1390.83
2017-May-15 07:01:49 1018.400 7.0 82 4.1         1390.83
2017-May-15 08:01:56 1019.000 8.9 85 6.5         1390.83
2017-May-15 09:01:51 1019.100 14.9 75 10.5         1390.83
2017-May-15 10:01:54 1018.600 21.3 53 11.3         1390.83
2017-May-15 11:02:05 1019.100 23.8 37 8.2 2.5 SSW     1390.83
2017-May-15 12:01:39 1019.200 25.3 33 7.8         1390.83
2017-May-15 13:01:37 1018.900 25.8 30 6.9 2.9 S     1390.83
2017-May-15 14:01:55 1018.800 26.6 28 6.5         1390.83
2017-May-15 15:01:45 1018.400 28.3 27 7.3         1390.83
2017-May-15 16:01:47 1018.100 28.7 26 7.1 1.8 S     1390.83
2017-May-15 17:01:40 1017.500 28.1 27 7.1 1.4 SSW     1390.83
2017-May-15 18:01:45 1017.300 25.9 31 7.4         1390.83
2017-May-15 19:01:40 1017.400 23.6 33 6.3         1390.83
2017-May-15 20:02:03 1017.400 21.7 38 6.7         1390.83
2017-May-15 21:01:41 1017.800 19.3 42 6.0         1390.83
2017-May-15 22:01:55 1018.300 17.8 46 5.9         1390.83
2017-May-15 23:01:36 1018.800 15.6 51 5.5         1390.83

Temperatura Máxima:28°    Temperatura Mínima:
Presión Máxima:1019.200 Hpa    Presión Mínima:1017.300 Hpa


Volver